LFPM 030600Z AUTO 05007KT 360V090 9999 -RA OVC015 03/01 Q1016

Les avions qui composent notre flotte

Avion Robin DR400 2+2

L'avion école par excellence

F-GAVN
   * tarif promotionnel appliqué pendant la formation des élèves non brevetés


F-GAVN Planche